Time;durP1;ratioP1;P1;durP2;ratioP2;P2;SDS_P1;SDS_P2;PMS_P1;PMS_P2;Temp;Humidity;BMP_temperature;BMP_pressure;BME280_temperature;BME280_humidity;BME280_pressure;Samples;Min_cycle;Max_cycle;Signal;HPM_P1;HPM_P2
2022/04/23 00:00:22;;;;;;;21.02;16.90;;;8.40;73.60;;;;;;5032641;28;20230;-63
2022/04/23 00:02:49;;;;;;;18.90;15.45;;;8.40;74.30;;;;;;5032272;28;20273;-63
2022/04/23 00:05:16;;;;;;;21.40;13.65;;;8.50;74.80;;;;;;5032886;28;20274;-63
2022/04/23 00:07:43;;;;;;;17.35;14.40;;;8.60;75.20;;;;;;5032226;28;20593;-62
2022/04/23 00:10:12;;;;;;;17.25;14.60;;;8.60;74.70;;;;;;5032392;28;20225;-62
2022/04/23 00:12:40;;;;;;;15.80;13.98;;;8.70;75.00;;;;;;5032512;28;20297;-62
2022/04/23 00:15:08;;;;;;;16.73;14.30;;;8.70;74.70;;;;;;5031132;28;20249;-64
2022/04/23 00:17:35;;;;;;;17.15;13.75;;;8.80;74.90;;;;;;5032671;28;20318;-63
2022/04/23 00:20:02;;;;;;;18.13;15.27;;;8.80;74.60;;;;;;5031933;28;20266;-63
2022/04/23 00:22:29;;;;;;;18.10;16.00;;;8.80;74.50;;;;;;5032925;28;20620;-63
2022/04/23 00:24:57;;;;;;;25.05;18.58;;;8.90;75.10;;;;;;5031976;28;20184;-63
2022/04/23 00:27:26;;;;;;;20.40;16.45;;;9.00;75.70;;;;;;5032352;28;20312;-64
2022/04/23 00:29:53;;;;;;;18.88;15.60;;;9.00;75.70;;;;;;5012819;28;20238;-62
2022/04/23 00:32:20;;;;;;;22.92;16.48;;;8.90;75.60;;;;;;5013041;28;20192;-64
2022/04/23 00:34:47;;;;;;;19.98;16.42;;;9.00;76.30;;;;;;5030972;28;20183;-62
2022/04/23 00:37:14;;;;;;;23.45;16.95;;;9.00;76.70;;;;;;5032662;28;20628;-63
2022/04/23 00:39:41;;;;;;;18.42;16.42;;;9.00;76.30;;;;;;5031615;28;20214;-66
2022/04/23 00:42:09;;;;;;;21.10;17.58;;;9.10;76.40;;;;;;5032086;28;20313;-62
2022/04/23 00:44:38;;;;;;;20.63;17.77;;;9.10;76.80;;;;;;5031952;28;20199;-63
2022/04/23 00:47:05;;;;;;;16.75;15.07;;;9.20;77.10;;;;;;5032582;28;20290;-63
2022/04/23 00:49:33;;;;;;;19.25;16.75;;;9.20;76.90;;;;;;5031348;28;20241;-62
2022/04/23 00:52:00;;;;;;;17.50;15.52;;;9.20;77.10;;;;;;5031346;28;20241;-62
2022/04/23 00:54:27;;;;;;;20.17;16.45;;;9.20;77.60;;;;;;5032321;28;20273;-63
2022/04/23 00:56:54;;;;;;;18.95;16.73;;;9.20;77.70;;;;;;5031301;28;20242;-63
2022/04/23 00:59:21;;;;;;;18.40;16.38;;;9.30;77.70;;;;;;5032102;28;20198;-63
2022/04/23 01:01:53;;;;;;;20.25;17.45;;;9.30;77.40;;;;;;5029544;28;20274;-62
2022/04/23 01:04:20;;;;;;;18.40;15.82;;;9.40;77.30;;;;;;5032385;28;20201;-63
2022/04/23 01:06:47;;;;;;;17.27;14.63;;;9.40;77.60;;;;;;5031547;28;20191;-62
2022/04/23 01:09:14;;;;;;;20.05;16.15;;;9.40;77.80;;;;;;5032167;28;20195;-62
2022/04/23 01:11:41;;;;;;;19.80;17.58;;;9.40;77.60;;;;;;5031159;28;20278;-63
2022/04/23 01:14:08;;;;;;;22.42;15.80;;;9.50;78.00;;;;;;5032185;28;20615;-63
2022/04/23 01:16:35;;;;;;;18.73;15.77;;;9.50;78.00;;;;;;5031067;28;20270;-62
2022/04/23 01:19:03;;;;;;;21.48;16.42;;;9.60;77.90;;;;;;5032049;28;20226;-63
2022/04/23 01:21:33;;;;;;;19.83;16.40;;;9.60;78.00;;;;;;5031349;28;20550;-63
2022/04/23 01:24:01;;;;;;;20.52;17.83;;;9.60;78.30;;;;;;5030317;28;20191;-63
2022/04/23 01:26:29;;;;;;;19.67;16.73;;;9.70;78.80;;;;;;5035301;28;20281;-63
2022/04/23 01:28:58;;;;;;;22.85;17.92;;;9.70;79.20;;;;;;5035002;28;20218;-63
2022/04/23 01:31:25;;;;;;;24.58;19.00;;;9.80;79.00;;;;;;5035792;28;20195;-63
2022/04/23 01:33:52;;;;;;;21.70;18.08;;;9.80;79.30;;;;;;5034869;28;20277;-62
2022/04/23 01:36:19;;;;;;;23.42;20.42;;;9.80;80.00;;;;;;5035563;28;20278;-63
2022/04/23 01:38:48;;;;;;;30.40;24.10;;;9.90;80.50;;;;;;5034503;28;20305;-63
2022/04/23 01:41:15;;;;;;;31.92;23.35;;;9.90;82.50;;;;;;5035120;28;20317;-63
2022/04/23 01:43:42;;;;;;;32.25;26.65;;;10.00;83.40;;;;;;5034839;28;20202;-62
2022/04/23 01:46:09;;;;;;;32.03;24.30;;;10.00;84.50;;;;;;5035141;28;20729;-63
2022/04/23 01:48:36;;;;;;;30.88;27.05;;;10.10;85.10;;;;;;5034583;28;20206;-63
2022/04/23 01:51:03;;;;;;;35.67;26.73;;;10.20;86.00;;;;;;5035147;28;20302;-62
2022/04/23 01:53:30;;;;;;;30.67;25.92;;;10.20;86.10;;;;;;5032268;28;20269;-63
2022/04/23 01:55:59;;;;;;;34.90;27.27;;;10.30;86.40;;;;;;5034803;28;20194;-63
2022/04/23 01:58:26;;;;;;;33.40;25.60;;;10.30;86.20;;;;;;5035029;28;20227;-63
2022/04/23 02:00:54;;;;;;;34.97;25.38;;;10.40;86.30;;;;;;5034483;28;20618;-62
2022/04/23 02:03:22;;;;;;;31.08;25.13;;;10.40;86.10;;;;;;5035119;28;20195;-63
2022/04/23 02:05:49;;;;;;;35.05;26.38;;;10.40;86.00;;;;;;5034013;28;20535;-63
2022/04/23 02:08:17;;;;;;;32.97;26.10;;;10.50;86.40;;;;;;5034999;28;20285;-63
2022/04/23 02:10:45;;;;;;;33.25;26.45;;;10.50;86.30;;;;;;5034016;28;20226;-63
2022/04/23 02:13:13;;;;;;;31.02;26.02;;;10.50;86.00;;;;;;5034846;28;20198;-63
2022/04/23 02:15:41;;;;;;;31.67;25.23;;;10.50;85.90;;;;;;5034003;28;20279;-63
2022/04/23 02:18:09;;;;;;;33.25;26.92;;;10.60;86.30;;;;;;5033973;28;20217;-63
2022/04/23 02:20:36;;;;;;;31.27;26.10;;;10.60;86.00;;;;;;5034837;28;20538;-63
2022/04/23 02:23:03;;;;;;;30.75;24.23;;;10.60;85.80;;;;;;5033822;28;20270;-63
2022/04/23 02:25:31;;;;;;;29.02;24.80;;;10.70;85.60;;;;;;5033868;28;20302;-63
2022/04/23 02:27:57;;;;;;;30.35;24.63;;;10.70;85.50;;;;;;5034318;28;20198;-63
2022/04/23 02:30:26;;;;;;;29.38;25.20;;;10.70;85.30;;;;;;5033912;28;20194;-64
2022/04/23 02:32:53;;;;;;;30.45;24.42;;;10.70;85.40;;;;;;5034442;28;20282;-63
2022/04/23 02:35:20;;;;;;;30.83;26.38;;;10.60;85.40;;;;;;5034265;28;20592;-63
2022/04/23 02:37:48;;;;;;;31.27;25.55;;;10.60;85.80;;;;;;5033426;28;20226;-63
2022/04/23 02:40:16;;;;;;;25.65;22.05;;;10.60;85.70;;;;;;5034295;28;20210;-64
2022/04/23 02:42:44;;;;;;;30.20;23.63;;;10.70;85.80;;;;;;5033662;28;20297;-63
2022/04/23 02:45:15;;;;;;;31.77;26.65;;;10.70;85.90;;;;;;5034187;28;20284;-63
2022/04/23 02:47:50;;;;;;;28.95;23.80;;;10.70;85.50;;;;;;5033807;28;20194;-63
2022/04/23 02:50:25;;;;;;;27.05;23.17;;;10.70;85.80;;;;;;5033514;28;20191;-63
2022/04/23 02:52:53;;;;;;;27.58;23.13;;;10.70;85.90;;;;;;5034272;28;20195;-64
2022/04/23 02:55:20;;;;;;;29.40;24.10;;;10.70;85.60;;;;;;5033573;28;20275;-64
2022/04/23 02:57:47;;;;;;;29.98;24.05;;;10.70;85.80;;;;;;5033595;28;20250;-63
2022/04/23 03:00:14;;;;;;;29.63;23.40;;;10.70;85.90;;;;;;5033191;28;20658;-63
2022/04/23 03:02:44;;;;;;;29.17;23.63;;;10.70;86.10;;;;;;5033980;28;20290;-63
2022/04/23 03:05:14;;;;;;;33.97;23.75;;;10.70;85.80;;;;;;5032942;28;20191;-64
2022/04/23 03:07:41;;;;;;;28.98;23.25;;;10.70;85.60;;;;;;5033723;28;20680;-64
2022/04/23 03:10:10;;;;;;;28.92;23.80;;;10.70;85.80;;;;;;5033129;28;20286;-63
2022/04/23 03:12:38;;;;;;;29.88;22.30;;;10.60;85.90;;;;;;5033744;28;20220;-63
2022/04/23 03:15:06;;;;;;;32.97;22.40;;;10.60;85.90;;;;;;5032923;28;20194;-63
2022/04/23 03:17:34;;;;;;;31.58;23.80;;;10.70;86.00;;;;;;5033561;28;20320;-63
2022/04/23 03:20:02;;;;;;;31.67;24.02;;;10.70;85.90;;;;;;5032026;28;20187;-64
2022/04/23 03:22:32;;;;;;;29.58;23.58;;;10.70;85.60;;;;;;5033095;28;20187;-63
2022/04/23 03:25:00;;;;;;;27.90;21.60;;;10.60;85.80;;;;;;5033026;28;20282;-63
2022/04/23 03:27:28;;;;;;;30.15;20.95;;;10.60;86.40;;;;;;5033581;28;20296;-63
2022/04/23 03:29:59;;;;;;;26.10;21.92;;;10.60;86.30;;;;;;5033067;28;20214;-63
2022/04/23 03:32:26;;;;;;;29.02;22.02;;;10.60;86.10;;;;;;5013726;28;20567;-63
2022/04/23 03:34:53;;;;;;;28.92;23.45;;;10.60;85.80;;;;;;5013440;28;20725;-62
2022/04/23 03:37:21;;;;;;;28.75;22.20;;;10.60;85.20;;;;;;5032756;28;20273;-63
2022/04/23 03:39:52;;;;;;;30.65;24.10;;;10.60;85.20;;;;;;5033280;28;20716;-63
2022/04/23 03:42:20;;;;;;;31.23;22.73;;;10.60;85.30;;;;;;5032562;28;20258;-63
2022/04/23 03:44:47;;;;;;;28.23;21.48;;;10.60;85.30;;;;;;5032795;28;20649;-63
2022/04/23 03:47:16;;;;;;;26.42;20.77;;;10.60;85.10;;;;;;5032392;28;20223;-63
2022/04/23 03:49:43;;;;;;;26.48;21.25;;;10.50;85.40;;;;;;5032585;28;20183;-62
2022/04/23 03:52:11;;;;;;;29.10;20.25;;;10.60;85.30;;;;;;5032478;28;20195;-63
2022/04/23 03:54:39;;;;;;;26.55;20.50;;;10.50;85.50;;;;;;5033033;28;20605;-63
2022/04/23 03:57:08;;;;;;;30.10;22.40;;;10.50;85.40;;;;;;5032698;28;20560;-63
2022/04/23 03:59:37;;;;;;;26.98;21.15;;;10.40;85.90;;;;;;5012765;28;20282;-63
2022/04/23 04:02:06;;;;;;;27.80;21.95;;;10.50;86.00;;;;;;5013084;28;20271;-63
2022/04/23 04:04:34;;;;;;;24.42;20.90;;;10.40;85.90;;;;;;5032296;28;20242;-63
2022/04/23 04:07:01;;;;;;;29.50;21.83;;;10.50;85.90;;;;;;5032903;28;20192;-63
2022/04/23 04:09:29;;;;;;;25.77;20.00;;;10.40;85.90;;;;;;5032462;28;20206;-63
2022/04/23 04:12:03;;;;;;;25.77;20.65;;;10.40;86.30;;;;;;5032987;28;20606;-63
2022/04/23 04:14:34;;;;;;;27.33;20.95;;;10.40;86.20;;;;;;5032728;28;20190;-63
2022/04/23 04:17:09;;;;;;;27.92;20.00;;;10.40;86.20;;;;;;5032289;28;20186;-63
2022/04/23 04:19:40;;;;;;;24.40;20.00;;;10.40;86.30;;;;;;5032658;28;20268;-63
2022/04/23 04:22:08;;;;;;;24.58;20.23;;;10.50;85.80;;;;;;5032416;28;20191;-63
2022/04/23 04:24:36;;;;;;;24.60;20.02;;;10.40;85.40;;;;;;5032501;28;20249;-64
2022/04/23 04:27:06;;;;;;;25.63;20.08;;;10.40;85.30;;;;;;5032314;28;20191;-64
2022/04/23 04:29:35;;;;;;;34.17;24.05;;;10.40;85.80;;;;;;5032298;28;20183;-63
2022/04/23 04:32:02;;;;;;;29.38;21.20;;;10.30;86.60;;;;;;5032267;28;20515;-63
2022/04/23 04:34:30;;;;;;;29.58;20.58;;;10.20;85.80;;;;;;5032555;28;20282;-63
2022/04/23 04:37:05;;;;;;;26.27;19.58;;;10.20;86.20;;;;;;5031718;28;20187;-63
2022/04/23 04:39:34;;;;;;;27.02;20.15;;;10.20;86.10;;;;;;5032525;28;20625;-63
2022/04/23 04:42:02;;;;;;;26.02;19.40;;;10.20;86.10;;;;;;5031531;28;20215;-63
2022/04/23 04:44:29;;;;;;;25.35;19.45;;;10.20;85.90;;;;;;5032575;28;20661;-63
2022/04/23 04:46:58;;;;;;;25.20;20.70;;;10.20;85.80;;;;;;5032129;28;20218;-63
2022/04/23 04:49:25;;;;;;;25.80;19.48;;;10.20;86.00;;;;;;5032368;28;20670;-63
2022/04/23 04:51:56;;;;;;;22.17;19.15;;;10.20;86.00;;;;;;5031693;28;20183;-64
2022/04/23 04:54:24;;;;;;;25.60;19.15;;;10.30;85.90;;;;;;5012710;28;20303;-65
2022/04/23 04:56:52;;;;;;;26.90;20.95;;;10.30;85.90;;;;;;5027033;28;20187;-65
2022/04/23 04:59:20;;;;;;;21.63;18.00;;;10.30;85.80;;;;;;5033811;28;20223;-63
2022/04/23 05:01:48;;;;;;;24.27;18.27;;;10.30;85.40;;;;;;5035950;28;20196;-63
2022/04/23 05:04:18;;;;;;;23.58;18.67;;;10.30;85.10;;;;;;5035732;28;20179;-63
2022/04/23 05:06:45;;;;;;;21.00;17.85;;;10.30;85.00;;;;;;5036248;28;20200;-63
2022/04/23 05:09:15;;;;;;;26.88;18.38;;;10.30;85.00;;;;;;5034907;28;20206;-63
2022/04/23 05:11:42;;;;;;;21.02;16.60;;;10.30;85.20;;;;;;5036040;28;20205;-63
2022/04/23 05:14:16;;;;;;;22.77;16.67;;;10.30;85.10;;;;;;5035614;28;20189;-63
2022/04/23 05:16:44;;;;;;;21.88;16.52;;;10.30;85.00;;;;;;5035598;28;20199;-63
2022/04/23 05:19:12;;;;;;;20.23;16.52;;;10.30;84.70;;;;;;5035326;28;20218;-64
2022/04/23 05:21:41;;;;;;;22.70;17.20;;;10.30;84.70;;;;;;5035486;28;20191;-63
2022/04/23 05:24:08;;;;;;;20.45;16.80;;;10.30;84.70;;;;;;5035432;28;20201;-63
2022/04/23 05:26:36;;;;;;;23.50;15.85;;;10.40;84.80;;;;;;5035657;28;20724;-63
2022/04/23 05:29:04;;;;;;;25.80;17.52;;;10.30;84.60;;;;;;5035350;28;20270;-65
2022/04/23 05:31:32;;;;;;;25.83;18.05;;;10.30;84.90;;;;;;5035525;28;20230;-63
2022/04/23 05:34:00;;;;;;;20.38;16.20;;;10.40;84.70;;;;;;5035826;28;20199;-63
2022/04/23 05:36:27;;;;;;;21.48;15.77;;;10.40;84.50;;;;;;5035408;28;20544;-63
2022/04/23 05:38:56;;;;;;;17.38;14.35;;;10.40;84.40;;;;;;5035459;28;20271;-63
2022/04/23 05:41:24;;;;;;;19.70;15.45;;;10.40;84.70;;;;;;5035104;28;20312;-63
2022/04/23 05:43:52;;;;;;;19.85;15.68;;;10.50;84.60;;;;;;5035574;28;20195;-63
2022/04/23 05:46:19;;;;;;;18.25;14.65;;;10.50;84.10;;;;;;5034909;28;20227;-62
2022/04/23 05:48:48;;;;;;;17.30;14.68;;;10.50;84.10;;;;;;5035394;28;20230;-62
2022/04/23 05:51:16;;;;;;;15.07;13.23;;;10.60;83.50;;;;;;5035069;28;20646;-63
2022/04/23 05:53:43;;;;;;;16.48;13.15;;;10.60;83.20;;;;;;5034647;28;20187;-63
2022/04/23 05:56:12;;;;;;;18.92;12.13;;;10.60;82.10;;;;;;5034877;28;20660;-63
2022/04/23 05:58:39;;;;;;;16.40;14.00;;;10.50;82.20;;;;;;5034915;28;20214;-63
2022/04/23 06:01:07;;;;;;;16.42;13.05;;;10.60;84.00;;;;;;5034560;28;20668;-63
2022/04/23 06:03:34;;;;;;;16.05;11.57;;;10.60;82.90;;;;;;5035004;28;20277;-63
2022/04/23 06:06:02;;;;;;;14.55;12.50;;;10.60;82.40;;;;;;5033887;28;20201;-63
2022/04/23 06:08:34;;;;;;;16.40;12.43;;;10.60;82.50;;;;;;5034960;28;20217;-64
2022/04/23 06:11:02;;;;;;;15.45;12.38;;;10.60;82.30;;;;;;5032798;28;20529;-63
2022/04/23 06:13:31;;;;;;;14.88;11.55;;;10.60;82.30;;;;;;5034343;28;20687;-63
2022/04/23 06:15:58;;;;;;;14.65;11.90;;;10.70;82.10;;;;;;5034855;28;20226;-63
2022/04/23 06:18:26;;;;;;;16.65;13.00;;;10.70;81.80;;;;;;5034584;28;20273;-63
2022/04/23 06:20:53;;;;;;;16.92;13.80;;;10.70;82.50;;;;;;5034592;28;20191;-63
2022/04/23 06:23:21;;;;;;;17.92;13.30;;;10.70;82.50;;;;;;5034596;28;20195;-63
2022/04/23 06:25:48;;;;;;;15.80;12.15;;;10.80;82.70;;;;;;5034087;28;20195;-63
2022/04/23 06:28:16;;;;;;;13.85;11.10;;;10.80;82.20;;;;;;5034837;28;20195;-63
2022/04/23 06:30:45;;;;;;;15.40;11.85;;;10.90;81.40;;;;;;5034277;28;20192;-64
2022/04/23 06:33:12;;;;;;;11.80;9.82;;;10.90;81.50;;;;;;5034186;28;20270;-63
2022/04/23 06:35:39;;;;;;;14.15;11.43;;;10.90;81.20;;;;;;5034151;28;20191;-63
2022/04/23 06:38:07;;;;;;;14.00;12.00;;;10.90;81.60;;;;;;5034467;28;20218;-62
2022/04/23 06:40:35;;;;;;;15.05;11.88;;;10.90;80.90;;;;;;5033989;28;20184;-63
2022/04/23 06:43:03;;;;;;;17.48;11.52;;;10.90;81.20;;;;;;5033945;28;20223;-63
2022/04/23 06:45:30;;;;;;;13.68;10.70;;;10.90;81.20;;;;;;5033974;28;20665;-63
2022/04/23 06:48:04;;;;;;;15.95;11.98;;;10.90;81.00;;;;;;5034131;28;20274;-63
2022/04/23 06:50:32;;;;;;;15.95;13.27;;;11.00;80.90;;;;;;5033715;28;20191;-63
2022/04/23 06:53:00;;;;;;;17.60;12.13;;;10.90;80.50;;;;;;5034112;28;20191;-63
2022/04/23 06:55:28;;;;;;;12.90;11.60;;;11.00;80.70;;;;;;5033512;28;20192;-63
2022/04/23 06:57:56;;;;;;;15.32;11.20;;;11.00;80.90;;;;;;5034258;28;20558;-63
2022/04/23 07:00:23;;;;;;;12.82;10.05;;;11.00;80.50;;;;;;5033161;28;20221;-63
2022/04/23 07:02:51;;;;;;;13.93;10.15;;;11.00;80.40;;;;;;5033825;28;20195;-65
2022/04/23 07:05:20;;;;;;;12.50;10.98;;;11.00;80.30;;;;;;5033742;28;20187;-63
2022/04/23 07:07:58;;;;;;;15.88;9.68;;;11.00;80.40;;;;;;5033722;28;20187;-63
2022/04/23 07:10:31;;;;;;;16.20;10.88;;;11.00;80.80;;;;;;5031658;28;20194;-65
2022/04/23 07:12:59;;;;;;;17.73;11.52;;;11.10;81.20;;;;;;5027999;28;20191;-63
2022/04/23 07:15:29;;;;;;;12.15;9.32;;;11.10;80.70;;;;;;5032062;28;20195;-63
2022/04/23 07:17:56;;;;;;;14.63;11.75;;;11.20;80.50;;;;;;5031747;28;20199;-63
2022/04/23 07:20:26;;;;;;;15.40;12.18;;;11.20;80.00;;;;;;5031599;28;20229;-63
2022/04/23 07:25:38;;;;;;;18.80;14.38;;;11.20;80.20;;;;;;5027784;28;20266;-63
2022/04/23 07:28:07;;;;;;;15.55;12.10;;;11.40;79.60;;;;;;5031296;28;20195;-63
2022/04/23 07:30:35;;;;;;;14.20;10.80;;;11.40;79.10;;;;;;5030658;28;20633;-64
2022/04/23 07:33:03;;;;;;;14.20;11.80;;;11.40;79.10;;;;;;5030536;28;20576;-63
2022/04/23 07:38:18;;;;;;;13.20;10.75;;;11.30;78.90;;;;;;5030495;28;20214;-64
2022/04/23 07:40:46;;;;;;;12.45;10.00;;;11.30;77.90;;;;;;5031182;28;20604;-63
2022/04/23 07:43:14;;;;;;;15.55;10.55;;;11.20;78.90;;;;;;5031553;28;20235;-64
2022/04/23 07:45:42;;;;;;;14.55;9.93;;;11.20;79.00;;;;;;5031026;28;20190;-64
2022/04/23 07:48:10;;;;;;;14.00;11.07;;;11.30;79.30;;;;;;5031450;28;20199;-63
2022/04/23 07:50:40;;;;;;;16.15;11.85;;;11.30;79.70;;;;;;5031293;28;20278;-63
2022/04/23 07:53:09;;;;;;;11.43;9.63;;;11.30;79.70;;;;;;5031718;28;20277;-63
2022/04/23 07:55:38;;;;;;;11.73;9.95;;;11.20;80.20;;;;;;5031681;28;20222;-63
2022/04/23 07:58:06;;;;;;;11.95;9.90;;;11.20;80.40;;;;;;5031241;28;20287;-63
2022/04/23 08:00:34;;;;;;;12.93;10.73;;;11.20;80.30;;;;;;5031486;28;20677;-63
2022/04/23 08:03:02;;;;;;;12.35;10.07;;;11.20;80.00;;;;;;5030745;28;20199;-63
2022/04/23 08:05:30;;;;;;;14.95;10.60;;;11.20;80.40;;;;;;5030554;28;20282;-66
2022/04/23 08:07:58;;;;;;;14.00;11.32;;;11.20;79.90;;;;;;5031578;28;20259;-63
2022/04/23 08:10:25;;;;;;;16.08;10.90;;;11.30;80.30;;;;;;5030502;28;20191;-64
2022/04/23 08:12:54;;;;;;;14.77;11.32;;;11.30;79.80;;;;;;5030279;28;20222;-64
2022/04/23 08:15:21;;;;;;;10.80;9.05;;;11.40;79.80;;;;;;5031492;28;20249;-64
2022/04/23 08:17:48;;;;;;;12.60;9.50;;;11.40;79.40;;;;;;5030614;28;20187;-63
2022/04/23 08:20:15;;;;;;;15.05;11.63;;;11.50;79.00;;;;;;5030673;28;20645;-63
2022/04/23 08:22:42;;;;;;;13.63;11.13;;;11.60;79.40;;;;;;5031198;28;20191;-63
2022/04/23 08:25:11;;;;;;;15.13;11.35;;;11.60;79.00;;;;;;5031094;28;20333;-63
2022/04/23 08:27:49;;;;;;;11.85;9.93;;;11.70;79.30;;;;;;5031264;28;20191;-63
2022/04/23 08:33:00;;;;;;;14.57;11.32;;;12.00;79.30;;;;;;5030646;28;20237;-64
2022/04/23 08:35:27;;;;;;;14.77;11.77;;;12.20;78.30;;;;;;5030420;28;20266;-63
2022/04/23 08:37:54;;;;;;;14.23;9.63;;;12.30;77.90;;;;;;5029956;28;20306;-64
2022/04/23 08:40:23;;;;;;;14.50;11.05;;;12.40;75.60;;;;;;5030367;28;20628;-65
2022/04/23 08:42:50;;;;;;;14.45;12.07;;;12.40;75.20;;;;;;5026715;28;20229;-64
2022/04/23 08:45:18;;;;;;;12.93;10.02;;;12.50;73.90;;;;;;5030693;28;20298;-63
2022/04/23 08:47:46;;;;;;;14.43;11.50;;;12.60;73.80;;;;;;5031092;28;20201;-63
2022/04/23 08:50:14;;;;;;;16.98;12.32;;;12.70;73.90;;;;;;5030868;28;20642;-63
2022/04/23 08:52:43;;;;;;;11.93;10.73;;;12.80;73.90;;;;;;5028791;28;20613;-63
2022/04/23 08:55:14;;;;;;;14.20;11.30;;;12.80;73.70;;;;;;5029945;28;20294;-63
2022/04/23 08:57:44;;;;;;;14.15;10.93;;;12.80;72.10;;;;;;5030672;28;20199;-64
2022/04/23 09:00:14;;;;;;;15.45;11.73;;;12.80;73.00;;;;;;5030983;28;20696;-63
2022/04/23 09:02:42;;;;;;;18.73;12.53;;;13.00;72.60;;;;;;5031097;28;20272;-64
2022/04/23 09:05:10;;;;;;;16.70;12.63;;;13.00;72.60;;;;;;5030548;28;20433;-65
2022/04/23 09:07:37;;;;;;;15.95;12.48;;;13.10;71.10;;;;;;5025918;28;20187;-64
2022/04/23 09:10:05;;;;;;;14.48;12.15;;;13.00;71.10;;;;;;5030218;28;20274;-64
2022/04/23 09:12:32;;;;;;;16.70;11.82;;;13.00;71.50;;;;;;5030586;28;20608;-64
2022/04/23 09:23:43;;;;;;;16.20;12.43;;;13.10;71.20;;;;;;5028832;28;20293;-64
2022/04/23 09:26:17;;;;;;;16.77;13.02;;;13.10;71.70;;;;;;5030372;28;20205;-63
2022/04/23 09:28:47;;;;;;;16.95;14.40;;;13.10;70.90;;;;;;5030667;28;20187;-63
2022/04/23 09:31:16;;;;;;;18.98;13.95;;;13.10;71.50;;;;;;5029967;28;20210;-64
2022/04/23 09:33:46;;;;;;;17.38;13.60;;;13.20;70.50;;;;;;5030609;28;20195;-63
2022/04/23 09:36:13;;;;;;;18.65;13.18;;;13.20;70.60;;;;;;5028105;28;20283;-63
2022/04/23 09:38:41;;;;;;;17.77;13.65;;;13.20;69.80;;;;;;5030202;28;20209;-64
2022/04/23 09:41:20;;;;;;;19.90;12.95;;;13.10;70.60;;;;;;5030335;28;20235;-63
2022/04/23 09:43:49;;;;;;;17.50;13.05;;;13.10;70.70;;;;;;5030272;28;20669;-67
2022/04/23 09:46:18;;;;;;;20.48;13.73;;;13.20;70.80;;;;;;5027936;28;20191;-63
2022/04/23 09:48:45;;;;;;;18.10;14.90;;;13.20;70.90;;;;;;5034316;28;20203;-63
2022/04/23 09:51:24;;;;;;;19.85;14.77;;;13.30;71.00;;;;;;5033968;28;20199;-63
2022/04/23 09:53:53;;;;;;;17.20;13.17;;;13.40;71.40;;;;;;5033786;28;20290;-64
2022/04/23 09:56:22;;;;;;;16.63;14.00;;;13.30;69.80;;;;;;5034008;28;20442;-63
2022/04/23 09:58:49;;;;;;;20.08;13.82;;;13.40;70.50;;;;;;5034238;28;20851;-63
2022/04/23 10:01:19;;;;;;;20.70;16.05;;;13.40;69.60;;;;;;5033505;28;20221;-64
2022/04/23 10:03:50;;;;;;;20.80;14.43;;;13.40;69.10;;;;;;5028878;28;20214;-63
2022/04/23 10:06:19;;;;;;;20.42;15.23;;;13.30;69.50;;;;;;5032146;28;20434;-63
2022/04/23 10:08:49;;;;;;;20.80;16.02;;;13.30;69.10;;;;;;5032854;28;20218;-63
2022/04/23 10:11:23;;;;;;;23.70;14.82;;;13.30;69.40;;;;;;5031030;28;20183;-63
2022/04/23 10:13:56;;;;;;;20.83;14.60;;;13.30;69.30;;;;;;5033181;28;20244;-64
2022/04/23 10:16:25;;;;;;;16.52;13.88;;;13.40;69.90;;;;;;5033395;28;20289;-63
2022/04/23 10:18:54;;;;;;;19.03;14.50;;;13.40;69.90;;;;;;5033629;28;20214;-64
2022/04/23 10:21:26;;;;;;;19.80;14.93;;;13.50;69.80;;;;;;5033369;28;20488;-64
2022/04/23 10:24:03;;;;;;;17.40;14.10;;;13.50;70.50;;;;;;5028834;28;20213;-63
2022/04/23 10:26:38;;;;;;;20.23;15.03;;;13.60;69.90;;;;;;5033053;28;20441;-64
2022/04/23 10:29:09;;;;;;;20.65;13.93;;;13.70;68.90;;;;;;5028762;28;20469;-64
2022/04/23 10:31:38;;;;;;;19.10;15.40;;;13.70;68.70;;;;;;5033287;28;20191;-64
2022/04/23 10:34:07;;;;;;;18.90;15.07;;;13.80;69.20;;;;;;5031334;28;20456;-64
2022/04/23 10:36:34;;;;;;;21.07;16.07;;;13.80;69.40;;;;;;5030893;28;20488;-64
2022/04/23 10:39:21;;;;;;;19.87;15.30;;;13.80;68.50;;;;;;5032385;28;20484;-63
2022/04/23 10:41:49;;;;;;;20.53;14.80;;;13.90;68.90;;;;;;5031909;28;20469;-63
2022/04/23 10:44:21;;;;;;;21.43;14.97;;;13.90;68.70;;;;;;5032333;28;20438;-64
2022/04/23 10:46:50;;;;;;;20.93;15.47;;;14.00;68.10;;;;;;5031886;28;20966;-64
2022/04/23 10:49:19;;;;;;;20.00;15.50;;;14.00;67.00;;;;;;5032365;28;20457;-64
2022/04/23 10:51:49;;;;;;;25.60;15.97;;;14.00;67.60;;;;;;5032613;28;20438;-63
2022/04/23 10:54:19;;;;;;;18.97;14.93;;;13.90;68.00;;;;;;5031169;28;20430;-63
2022/04/23 10:56:50;;;;;;;20.40;15.53;;;14.00;68.60;;;;;;5032460;28;20430;-63
2022/04/23 10:59:38;;;;;;;21.03;16.00;;;14.10;68.40;;;;;;5031998;28;20438;-63
2022/04/23 11:02:29;;;;;;;19.10;15.07;;;14.10;67.90;;;;;;5032338;28;20430;-63
2022/04/23 11:13:27;;;;;;;20.83;15.03;;;14.30;67.40;;;;;;5031912;28;20426;-66
2022/04/23 11:16:11;;;;;;;20.07;16.47;;;14.40;67.60;;;;;;5029639;28;20429;-64
2022/04/23 11:18:41;;;;;;;19.17;14.47;;;14.50;66.90;;;;;;5029822;28;20434;-64
2022/04/23 11:21:15;;;;;;;17.43;13.93;;;14.50;66.20;;;;;;5031462;28;20488;-63
2022/04/23 11:23:45;;;;;;;16.80;13.90;;;14.50;64.80;;;;;;5031517;28;20879;-63
2022/04/23 11:26:13;;;;;;;19.70;14.40;;;14.50;65.30;;;;;;5028743;28;21125;-64
2022/04/23 11:28:42;;;;;;;18.93;14.73;;;14.50;66.10;;;;;;5031134;28;20508;-64
2022/04/23 11:31:13;;;;;;;18.93;15.73;;;14.50;66.60;;;;;;5030580;28;20771;-63
2022/04/23 11:33:53;;;;;;;15.77;13.73;;;14.50;66.30;;;;;;5031448;28;20468;-63
2022/04/23 11:36:25;;;;;;;18.40;14.00;;;14.60;65.80;;;;;;5030800;28;20442;-63
2022/04/23 11:38:53;;;;;;;18.70;14.97;;;14.80;64.80;;;;;;5031175;28;20526;-63
2022/04/23 11:41:31;;;;;;;17.00;13.73;;;14.80;65.00;;;;;;5026500;28;20592;-64
2022/04/23 11:43:59;;;;;;;16.20;13.53;;;14.80;65.70;;;;;;5029847;28;20446;-64
2022/04/23 11:46:26;;;;;;;14.93;12.90;;;14.80;64.10;;;;;;5030182;28;20465;-64
2022/04/23 11:48:54;;;;;;;15.90;13.07;;;14.80;64.80;;;;;;5028950;28;20511;-64
2022/04/23 11:51:22;;;;;;;14.87;12.00;;;14.90;64.60;;;;;;5028954;28;20525;-65
2022/04/23 11:53:55;;;;;;;19.10;13.47;;;15.10;65.90;;;;;;5028870;28;20438;-64
2022/04/23 11:56:33;;;;;;;14.73;11.73;;;15.40;65.40;;;;;;5028184;28;20446;-64
2022/04/23 11:59:04;;;;;;;17.83;11.87;;;15.80;64.30;;;;;;5029236;28;20437;-64
2022/04/23 12:01:31;;;;;;;17.20;13.70;;;16.20;60.70;;;;;;5029899;28;20483;-64
2022/04/23 12:04:00;;;;;;;14.00;10.80;;;16.60;60.00;;;;;;5029578;28;20917;-64
2022/04/23 12:06:42;;;;;;;14.50;13.00;;;17.10;57.70;;;;;;5030026;28;20464;-64
2022/04/23 12:09:09;;;;;;;15.23;12.07;;;17.30;57.40;;;;;;5028675;28;20438;-65
2022/04/23 12:11:36;;;;;;;15.23;12.37;;;17.40;56.70;;;;;;5029460;28;20577;-64
2022/04/23 12:14:04;;;;;;;14.10;12.27;;;17.60;56.10;;;;;;5029530;28;20486;-64
2022/04/23 12:16:39;;;;;;;15.50;10.73;;;17.60;56.00;;;;;;5029429;28;20445;-64
2022/04/23 12:19:09;;;;;;;12.37;10.60;;;17.70;55.40;;;;;;5029153;28;20526;-64
2022/04/23 12:21:38;;;;;;;13.50;10.53;;;17.80;54.90;;;;;;5029354;28;20488;-64
2022/04/23 12:24:07;;;;;;;13.57;11.83;;;17.90;53.40;;;;;;5028422;28;20854;-65
2022/04/23 12:26:38;;;;;;;15.30;12.23;;;17.80;53.00;;;;;;5028480;28;20916;-64
2022/04/23 12:43:26;;;;;;;15.37;11.80;;;18.30;53.90;;;;;;5029012;28;20460;-64
2022/04/23 12:46:06;;;;;;;16.20;11.30;;;18.60;55.90;;;;;;5031287;28;20533;-63
2022/04/23 12:48:55;;;;;;;12.47;10.17;;;18.90;52.40;;;;;;5026893;28;20426;-65
2022/04/23 12:51:24;;;;;;;13.50;11.90;;;19.00;51.50;;;;;;5026878;28;20441;-64
2022/04/23 12:53:52;;;;;;;14.50;10.80;;;18.80;51.70;;;;;;5030709;28;20491;-65
2022/04/23 12:56:19;;;;;;;11.97;10.70;;;18.70;53.10;;;;;;5030563;28;20442;-65
2022/04/23 12:58:46;;;;;;;12.93;11.00;;;18.70;52.50;;;;;;5030863;28;20434;-64
2022/04/23 13:01:13;;;;;;;11.80;10.40;;;18.60;52.00;;;;;;5031031;28;21007;-64
2022/04/23 13:03:44;;;;;;;13.13;10.40;;;18.50;52.60;;;;;;5031033;28;20813;-64
2022/04/23 13:08:55;;;;;;;12.33;11.10;;;18.40;52.00;;;;;;5030886;28;20426;-65
2022/04/23 13:11:30;;;;;;;11.63;9.47;;;18.50;52.50;;;;;;5030430;28;20484;-64
2022/04/23 13:13:59;;;;;;;12.20;10.73;;;18.50;53.80;;;;;;5031108;28;20480;-64
2022/04/23 13:16:27;;;;;;;12.33;9.17;;;18.50;52.80;;;;;;5031010;28;20449;-65
2022/04/23 13:18:55;;;;;;;12.80;11.50;;;18.50;52.40;;;;;;5030457;28;20488;-64